Date,TemperatureHighF,TemperatureAvgF,TemperatureLowF,DewpointHighF,DewpointAvgF,DewpointLowF,HumidityHigh,HumidityAvg,HumidityLow,PressureMaxIn,PressureMinIn,WindSpeedMaxMPH,WindSpeedAvgMPH,GustSpeedMaxMPH,PrecipitationSumIn
2012-12-1,68.9,62.1,46.2,40.8,34.9,23.7,68,36,33,29.54,29.31,0,-999,0,0.00
2012-12-2,68.2,56.0,44.4,45.9,36.0,31.1,82,49,33,29.54,29.39,0,-999,0,0.00
2012-12-3,73.0,63.9,53.1,41.4,35.7,26.8,40,35,32,29.54,29.28,0,-999,0,0.08
2012-12-4,61.0,48.4,34.7,32.9,23.3,12.9,40,37,34,29.81,29.54,0,-999,0,0.08
2012-12-5,59.0,43.8,28.9,31.3,20.0,9.3,45,39,35,29.84,29.57,0,-999,0,0.00
2012-12-6,57.2,48.0,42.3,29.8,23.3,18.9,41,38,35,29.57,29.39,0,-999,0,0.00
2012-12-7,53.4,48.0,43.7,27.0,24.4,21.2,43,39,36,29.42,29.34,0,-999,0,0.00
2012-12-8,47.7,42.3,37.8,26.6,21.0,17.6,56,43,37,29.51,29.36,0,-999,0,0.00
2012-12-9,45.0,38.4,23.2,40.6,23.0,3.6,95,56,39,29.54,29.31,0,-999,0,0.00
2012-12-10,32.9,23.7,17.4,11.7,4.2,-0.8,44,42,41,29.57,29.51,0,-999,0,0.00
2012-12-11,43.9,28.4,17.8,19.8,7.8,-0.9,44,41,38,29.66,29.51,0,-999,0,0.00
2012-12-12,50.2,36.5,25.7,25.0,14.1,5.7,42,40,37,29.75,29.63,0,-999,0,0.00
2012-12-13,58.3,43.1,35.1,30.6,19.3,13.1,40,38,35,29.66,29.54,0,-999,0,0.00
2012-12-14,54.3,45.2,36.0,27.7,21.2,13.8,52,38,36,29.60,29.22,0,-999,0,0.41
2012-12-15,56.1,48.9,39.4,29.5,26.4,22.1,56,42,36,29.25,29.04,0,-999,0,0.50
2012-12-16,40.6,37.3,32.5,39.9,25.5,19.0,98,64,46,29.28,29.16,0,-999,0,0.00
2012-12-17,44.6,37.3,33.6,30.2,22.0,14.5,77,55,38,29.25,29.19,0,-999,0,0.00
2012-12-18,57.6,43.0,33.1,30.0,20.0,12.0,54,40,35,29.39,29.10,0,-999,0,0.00
2012-12-19,53.8,40.4,32.2,46.0,19.6,11.7,76,43,38,29.42,28.86,0,-999,0,0.04
2012-12-20,49.3,29.8,22.5,36.3,14.4,3.4,85,53,41,29.66,28.80,0,-999,0,0.04
2012-12-21,38.1,24.8,15.3,15.3,5.1,-2.2,45,42,39,29.81,29.66,0,-999,0,0.00
2012-12-22,52.9,32.8,15.3,26.6,11.8,-0.9,49,42,36,29.69,29.36,0,-999,0,0.04
2012-12-23,38.3,30.1,23.7,15.3,9.5,5.2,47,42,39,29.45,29.34,0,-999,0,0.00
2012-12-24,26.6,21.7,17.8,6.6,2.9,-0.8,45,43,42,29.57,29.36,0,-999,0,0.00
2012-12-25,24.4,21.2,15.4,4.8,2.3,-2.6,45,43,42,29.72,29.54,0,-999,0,0.00
2012-12-26,27.3,19.5,14.2,6.8,0.7,-3.8,44,43,41,29.66,29.57,0,-999,0,0.00
2012-12-27,38.5,26.8,14.9,15.6,6.9,-2.6,47,42,39,29.60,29.39,0,-999,0,0.00
2012-12-28,34.3,31.0,22.5,12.6,10.0,3.2,43,41,40,29.48,29.36,0,-999,0,0.00
2012-12-29,34.5,25.4,21.4,12.7,5.5,2.3,43,42,40,29.72,29.48,0,-999,0,0.00
2012-12-30,45.7,32.7,20.7,21.4,11.2,1.8,43,41,38,29.78,29.54,0,-999,0,0.00
2012-12-31,36.9,32.7,23.9,23.2,14.8,4.6,68,48,40,29.60,29.45,0,-999,0,0.12